This is the latest recevied weather packets stored in our database for station/object KB3AWQ. If no packets are shown the sender has not sent any weather packets the latest 10 day(s).
| Time | Temp. | Humidity | Pressure | Rain* | Wind** | Luminosity | Snow |
|---|---|---|---|---|---|---|---|
| 1777826966 | 13.89° C | 41% | 1013.8 hPa | 0 mm | - | 908 W/m² | - |
| 1777826666 | 13.89° C | 42% | 1013.9 hPa | 0 mm | - | 891 W/m² | - |
| 1777826367 | 13.89° C | 40% | 1014 hPa | 0 mm | - | 906 W/m² | - |
| 1777826067 | 13.33° C | 44% | 1014.1 hPa | 0 mm | - | 1059 W/m² | - |
| 1777825766 | 13.89° C | 42% | 1014.1 hPa | 0 mm | - | 623 W/m² | - |
| 1777825467 | 13.33° C | 45% | 1014.2 hPa | 0 mm | - | 1069 W/m² | - |
| 1777825167 | 13.33° C | 42% | 1014.1 hPa | 0 mm | - | 1047 W/m² | - |
| 1777824867 | 13.33° C | 42% | 1014.3 hPa | 0 mm | - | 961 W/m² | - |
| 1777824567 | 12.78° C | 45% | 1014.4 hPa | 0 mm | - | 1004 W/m² | - |
| 1777824267 | 12.78° C | 44% | 1014.4 hPa | 0 mm | - | 1071 W/m² | - |
| 1777823966 | 12.78° C | 45% | 1014.3 hPa | 0 mm | - | 565 W/m² | - |
| 1777823666 | 12.78° C | 45% | 1014.4 hPa | 0 mm | - | 318 W/m² | - |
| 1777823366 | 12.22° C | 44% | 1014.5 hPa | 0 mm | - | 734 W/m² | - |
| 1777823067 | 12.22° C | 47% | 1014.6 hPa | 0 mm | - | 556 W/m² | - |
| 1777822767 | 12.22° C | 46% | 1014.6 hPa | 0 mm | - | 401 W/m² | - |
| 1777822466 | 12.22° C | 45% | 1014.6 hPa | 0 mm | - | 379 W/m² | - |
| 1777822166 | 12.22° C | 44% | 1014.6 hPa | 0 mm | - | 324 W/m² | - |
| 1777821866 | 11.67° C | 47% | 1014.7 hPa | 0 mm | - | 486 W/m² | - |
| 1777821567 | 11.67° C | 46% | 1014.8 hPa | 0 mm | - | 499 W/m² | - |
| 1777821268 | 11.11° C | 47% | 1014.9 hPa | 0 mm | - | 304 W/m² | - |
| 1777820966 | 10.56° C | 50% | 1014.8 hPa | 0 mm | - | 1076 W/m² | - |
| 1777820666 | 11.11° C | 48% | 1014.8 hPa | 0 mm | - | 274 W/m² | - |
| 1777820367 | 11.11° C | 47% | 1014.8 hPa | 0 mm | - | 274 W/m² | - |
| 1777820066 | 11.11° C | 47% | 1014.8 hPa | 0 mm | - | 278 W/m² | - |
| 1777819767 | 11.67° C | 47% | 1014.8 hPa | 0 mm | - | 719 W/m² | - |
* Rain latest hour (hover to see other rain measurements)
** Current wind speed in m/s (hover to see current wind gust speed)